sensor_id;sensor_type;location;lat;lon;timestamp;pressure;altitude;pressure_sealevel;temperature;humidity
59272;BME280;45043;51.068;7.026;2023-02-19T00:00:05;100704.94;;;6.43;76.35
59272;BME280;45043;51.068;7.026;2023-02-19T00:03:13;100720.28;;;6.39;76.48
59272;BME280;45043;51.068;7.026;2023-02-19T00:06:13;100697.84;;;6.35;76.61
59272;BME280;45043;51.068;7.026;2023-02-19T00:09:16;100716.97;;;6.37;76.57
59272;BME280;45043;51.068;7.026;2023-02-19T00:12:17;100714.63;;;6.34;76.74
59272;BME280;45043;51.068;7.026;2023-02-19T00:15:17;100687.28;;;6.35;76.57
59272;BME280;45043;51.068;7.026;2023-02-19T00:18:18;100692.56;;;6.35;76.57
59272;BME280;45043;51.068;7.026;2023-02-19T00:21:19;100698.00;;;6.34;76.55
59272;BME280;45043;51.068;7.026;2023-02-19T00:24:20;100695.03;;;6.37;76.47
59272;BME280;45043;51.068;7.026;2023-02-19T00:27:21;100713.34;;;6.38;75.77
59272;BME280;45043;51.068;7.026;2023-02-19T00:30:21;100686.47;;;6.35;76.26
59272;BME280;45043;51.068;7.026;2023-02-19T00:33:22;100705.75;;;6.35;76.27
59272;BME280;45043;51.068;7.026;2023-02-19T00:36:23;100699.97;;;6.40;76.08
59272;BME280;45043;51.068;7.026;2023-02-19T00:39:23;100672.91;;;6.38;76.14
59272;BME280;45043;51.068;7.026;2023-02-19T00:42:25;100669.47;;;6.37;76.07
59272;BME280;45043;51.068;7.026;2023-02-19T00:45:25;100678.38;;;6.36;76.20
59272;BME280;45043;51.068;7.026;2023-02-19T00:48:25;100680.00;;;6.37;76.16
59272;BME280;45043;51.068;7.026;2023-02-19T00:51:28;100672.91;;;6.38;76.22
59272;BME280;45043;51.068;7.026;2023-02-19T00:54:29;100670.28;;;6.38;75.97
59272;BME280;45043;51.068;7.026;2023-02-19T00:57:32;100664.03;;;6.39;76.03
59272;BME280;45043;51.068;7.026;2023-02-19T01:00:32;100675.41;;;6.39;76.03
59272;BME280;45043;51.068;7.026;2023-02-19T01:03:34;100684.81;;;6.42;75.88
59272;BME280;45043;51.068;7.026;2023-02-19T01:06:35;100680.50;;;6.41;75.85
59272;BME280;45043;51.068;7.026;2023-02-19T01:09:36;100672.59;;;6.41;75.74
59272;BME280;45043;51.068;7.026;2023-02-19T01:12:38;100673.41;;;6.42;75.76
59272;BME280;45043;51.068;7.026;2023-02-19T01:15:38;100676.06;;;6.42;75.62
59272;BME280;45043;51.068;7.026;2023-02-19T01:18:39;100670.78;;;6.42;75.48
59272;BME280;45043;51.068;7.026;2023-02-19T01:21:40;100663.72;;;6.42;75.25
59272;BME280;45043;51.068;7.026;2023-02-19T01:24:41;100670.47;;;6.45;75.47
59272;BME280;45043;51.068;7.026;2023-02-19T01:27:41;100668.63;;;6.45;75.18
59272;BME280;45043;51.068;7.026;2023-02-19T01:30:41;100659.25;;;6.43;75.07
59272;BME280;45043;51.068;7.026;2023-02-19T01:33:51;100664.53;;;6.43;74.83
59272;BME280;45043;51.068;7.026;2023-02-19T01:36:52;100666.19;;;6.44;74.77
59272;BME280;45043;51.068;7.026;2023-02-19T01:39:52;100670.47;;;6.36;74.40
59272;BME280;45043;51.068;7.026;2023-02-19T01:42:53;100674.09;;;6.44;74.55
59272;BME280;45043;51.068;7.026;2023-02-19T01:45:54;100666.19;;;6.44;74.45
59272;BME280;45043;51.068;7.026;2023-02-19T01:48:57;100673.78;;;6.47;74.30
59272;BME280;45043;51.068;7.026;2023-02-19T01:52:03;100667.50;;;6.48;74.07
59272;BME280;45043;51.068;7.026;2023-02-19T01:55:06;100661.53;;;6.46;74.19
59272;BME280;45043;51.068;7.026;2023-02-19T01:58:08;100669.81;;;6.51;74.02
59272;BME280;45043;51.068;7.026;2023-02-19T02:01:11;100661.38;;;6.55;73.73
59272;BME280;45043;51.068;7.026;2023-02-19T02:04:13;100660.25;;;6.58;73.68
59272;BME280;45043;51.068;7.026;2023-02-19T02:07:15;100668.81;;;6.60;73.33
59272;BME280;45043;51.068;7.026;2023-02-19T02:10:34;100651.50;;;6.57;73.44
59272;BME280;45043;51.068;7.026;2023-02-19T02:13:37;100656.41;;;6.60;73.38
59272;BME280;45043;51.068;7.026;2023-02-19T02:16:54;100657.91;;;6.63;73.27
59272;BME280;45043;51.068;7.026;2023-02-19T02:23:49;100676.41;;;6.55;73.05
59272;BME280;45043;51.068;7.026;2023-02-19T02:30:09;100679.03;;;6.63;72.81
59272;BME280;45043;51.068;7.026;2023-02-19T02:33:20;100665.19;;;6.69;73.11
59272;BME280;45043;51.068;7.026;2023-02-19T02:36:34;100635.81;;;6.72;72.64
59272;BME280;45043;51.068;7.026;2023-02-19T02:39:38;100658.91;;;6.70;72.78
59272;BME280;45043;51.068;7.026;2023-02-19T02:42:41;100675.06;;;6.67;72.70
59272;BME280;45043;51.068;7.026;2023-02-19T02:45:46;100632.84;;;6.67;73.09
59272;BME280;45043;51.068;7.026;2023-02-19T02:49:04;100629.88;;;6.70;72.75
59272;BME280;45043;51.068;7.026;2023-02-19T02:52:10;100645.88;;;6.69;72.86
59272;BME280;45043;51.068;7.026;2023-02-19T02:55:38;100662.88;;;6.66;72.97
59272;BME280;45043;51.068;7.026;2023-02-19T02:58:42;100647.22;;;6.65;73.09
59272;BME280;45043;51.068;7.026;2023-02-19T03:01:47;100638.13;;;6.67;73.15
59272;BME280;45043;51.068;7.026;2023-02-19T03:05:22;100647.34;;;6.63;73.38
59272;BME280;45043;51.068;7.026;2023-02-19T03:08:50;100635.16;;;6.62;73.33
59272;BME280;45043;51.068;7.026;2023-02-19T03:11:54;100654.28;;;6.64;73.14
59272;BME280;45043;51.068;7.026;2023-02-19T03:15:18;100656.78;;;6.66;73.42
59272;BME280;45043;51.068;7.026;2023-02-19T03:18:39;100658.59;;;6.65;72.98
59272;BME280;45043;51.068;7.026;2023-02-19T03:22:06;100660.56;;;6.63;73.19
59272;BME280;45043;51.068;7.026;2023-02-19T03:25:27;100670.47;;;6.61;72.89
59272;BME280;45043;51.068;7.026;2023-02-19T03:28:55;100669.63;;;6.60;72.91
59272;BME280;45043;51.068;7.026;2023-02-19T03:32:23;100676.56;;;6.61;73.04
59272;BME280;45043;51.068;7.026;2023-02-19T03:35:32;100693.22;;;6.62;72.62
59272;BME280;45043;51.068;7.026;2023-02-19T03:38:42;100677.41;;;6.62;72.35
59272;BME280;45043;51.068;7.026;2023-02-19T03:51:30;100747.34;;;6.66;71.93
59272;BME280;45043;51.068;7.026;2023-02-19T03:54:37;100699.00;;;6.66;72.14
59272;BME280;45043;51.068;7.026;2023-02-19T03:57:46;100687.63;;;6.65;72.08
59272;BME280;45043;51.068;7.026;2023-02-19T04:00:54;100715.00;;;6.56;71.93
59272;BME280;45043;51.068;7.026;2023-02-19T04:04:11;100740.75;;;6.62;72.04
59272;BME280;45043;51.068;7.026;2023-02-19T04:07:13;100712.84;;;6.59;72.14
59272;BME280;45043;51.068;7.026;2023-02-19T04:10:16;100721.28;;;6.63;71.96
59272;BME280;45043;51.068;7.026;2023-02-19T04:13:29;100733.66;;;6.62;71.70
59272;BME280;45043;51.068;7.026;2023-02-19T04:16:31;100741.06;;;6.59;71.72
59272;BME280;45043;51.068;7.026;2023-02-19T04:19:36;100752.94;;;6.63;71.62
59272;BME280;45043;51.068;7.026;2023-02-19T04:22:38;100720.63;;;6.61;71.65
59272;BME280;45043;51.068;7.026;2023-02-19T04:25:41;100742.06;;;6.66;71.77
59272;BME280;45043;51.068;7.026;2023-02-19T04:28:43;100738.25;;;6.60;71.63
59272;BME280;45043;51.068;7.026;2023-02-19T04:31:43;100749.00;;;6.67;71.81
59272;BME280;45043;51.068;7.026;2023-02-19T04:34:44;100729.53;;;6.68;71.49
59272;BME280;45043;51.068;7.026;2023-02-19T04:37:44;100742.06;;;6.66;71.49
59272;BME280;45043;51.068;7.026;2023-02-19T04:40:45;100739.09;;;6.61;71.60
59272;BME280;45043;51.068;7.026;2023-02-19T04:43:46;100751.44;;;6.52;71.46
59272;BME280;45043;51.068;7.026;2023-02-19T04:46:46;100750.63;;;6.52;71.40
59272;BME280;45043;51.068;7.026;2023-02-19T04:49:47;100763.81;;;6.52;71.59
59272;BME280;45043;51.068;7.026;2023-02-19T04:52:47;100769.09;;;6.52;71.63
59272;BME280;45043;51.068;7.026;2023-02-19T04:55:48;100752.63;;;6.50;71.69
59272;BME280;45043;51.068;7.026;2023-02-19T04:58:52;100780.66;;;6.51;71.59
59272;BME280;45043;51.068;7.026;2023-02-19T05:01:52;100808.06;;;6.50;71.50
59272;BME280;45043;51.068;7.026;2023-02-19T05:04:53;100753.75;;;6.47;71.52
59272;BME280;45043;51.068;7.026;2023-02-19T05:07:53;100765.16;;;6.48;71.43
59272;BME280;45043;51.068;7.026;2023-02-19T05:10:57;100765.81;;;6.50;71.62
59272;BME280;45043;51.068;7.026;2023-02-19T05:13:58;100786.25;;;6.48;71.51
59272;BME280;45043;51.068;7.026;2023-02-19T05:16:58;100789.06;;;6.46;71.23
59272;BME280;45043;51.068;7.026;2023-02-19T05:19:59;100807.88;;;6.43;71.80
59272;BME280;45043;51.068;7.026;2023-02-19T05:22:59;100797.78;;;6.38;71.64
59272;BME280;45043;51.068;7.026;2023-02-19T05:26:04;100779.78;;;6.34;71.94
59272;BME280;45043;51.068;7.026;2023-02-19T05:29:05;100816.06;;;6.24;72.48
59272;BME280;45043;51.068;7.026;2023-02-19T05:32:05;100814.56;;;6.21;72.49
59272;BME280;45043;51.068;7.026;2023-02-19T05:35:06;100796.41;;;6.18;72.97
59272;BME280;45043;51.068;7.026;2023-02-19T05:38:06;100797.03;;;6.12;73.08
59272;BME280;45043;51.068;7.026;2023-02-19T05:41:15;100830.50;;;6.11;73.33
59272;BME280;45043;51.068;7.026;2023-02-19T05:44:15;100811.53;;;6.08;73.42
59272;BME280;45043;51.068;7.026;2023-02-19T05:47:16;100818.47;;;6.09;73.59
59272;BME280;45043;51.068;7.026;2023-02-19T05:50:16;100834.28;;;6.09;73.90
59272;BME280;45043;51.068;7.026;2023-02-19T05:53:17;100828.00;;;6.02;73.94
59272;BME280;45043;51.068;7.026;2023-02-19T05:59:27;100865.53;;;5.96;73.97
59272;BME280;45043;51.068;7.026;2023-02-19T06:02:27;100861.09;;;5.96;73.94
59272;BME280;45043;51.068;7.026;2023-02-19T06:05:28;100855.66;;;5.98;74.07
59272;BME280;45043;51.068;7.026;2023-02-19T06:08:28;100839.47;;;5.93;74.06
59272;BME280;45043;51.068;7.026;2023-02-19T06:11:29;100854.63;;;5.90;74.09
59272;BME280;45043;51.068;7.026;2023-02-19T06:14:29;100850.03;;;5.93;74.18
59272;BME280;45043;51.068;7.026;2023-02-19T06:17:30;100856.94;;;5.94;73.73
59272;BME280;45043;51.068;7.026;2023-02-19T06:20:30;100858.56;;;5.86;73.81
59272;BME280;45043;51.068;7.026;2023-02-19T06:23:32;100845.56;;;5.93;73.60
59272;BME280;45043;51.068;7.026;2023-02-19T06:26:32;100862.56;;;5.90;73.92
59272;BME280;45043;51.068;7.026;2023-02-19T06:29:33;100868.66;;;5.91;73.86
59272;BME280;45043;51.068;7.026;2023-02-19T06:32:34;100853.13;;;5.88;73.96
59272;BME280;45043;51.068;7.026;2023-02-19T06:35:35;100873.63;;;5.94;73.96
59272;BME280;45043;51.068;7.026;2023-02-19T06:38:35;100864.19;;;5.92;74.08
59272;BME280;45043;51.068;7.026;2023-02-19T06:41:36;100878.38;;;5.90;73.95
59272;BME280;45043;51.068;7.026;2023-02-19T06:44:36;100893.25;;;6.00;74.43
59272;BME280;45043;51.068;7.026;2023-02-19T06:47:37;100900.84;;;6.37;74.19
59272;BME280;45043;51.068;7.026;2023-02-19T06:50:37;100884.13;;;6.62;73.42
59272;BME280;45043;51.068;7.026;2023-02-19T06:53:38;100901.81;;;6.78;72.36
59272;BME280;45043;51.068;7.026;2023-02-19T06:56:40;100896.25;;;6.90;71.61
59272;BME280;45043;51.068;7.026;2023-02-19T06:59:40;100904.22;;;6.98;71.48
59272;BME280;45043;51.068;7.026;2023-02-19T07:02:41;100892.34;;;7.02;70.68
59272;BME280;45043;51.068;7.026;2023-02-19T07:05:41;100912.16;;;7.06;70.74
59272;BME280;45043;51.068;7.026;2023-02-19T07:08:43;100905.88;;;7.15;70.48
59272;BME280;45043;51.068;7.026;2023-02-19T07:11:43;100917.31;;;7.24;70.24
59272;BME280;45043;51.068;7.026;2023-02-19T07:14:43;100930.66;;;7.22;69.59
59272;BME280;45043;51.068;7.026;2023-02-19T07:17:44;100925.56;;;7.21;69.54
59272;BME280;45043;51.068;7.026;2023-02-19T07:20:44;100939.59;;;7.29;69.00
59272;BME280;45043;51.068;7.026;2023-02-19T07:23:45;100950.03;;;7.39;68.91
59272;BME280;45043;51.068;7.026;2023-02-19T07:26:45;100936.97;;;7.46;68.36
59272;BME280;45043;51.068;7.026;2023-02-19T07:29:46;100927.88;;;7.40;68.47
59272;BME280;45043;51.068;7.026;2023-02-19T07:32:46;100936.13;;;7.37;67.83
59272;BME280;45043;51.068;7.026;2023-02-19T07:35:48;100945.88;;;7.37;68.03
59272;BME280;45043;51.068;7.026;2023-02-19T07:38:56;100957.78;;;7.41;67.89
59272;BME280;45043;51.068;7.026;2023-02-19T07:41:57;100966.72;;;7.40;67.65
59272;BME280;45043;51.068;7.026;2023-02-19T07:45:02;100983.25;;;7.50;67.19
59272;BME280;45043;51.068;7.026;2023-02-19T07:48:02;101010.00;;;7.55;67.35
59272;BME280;45043;51.068;7.026;2023-02-19T07:51:05;100977.97;;;7.58;67.07
59272;BME280;45043;51.068;7.026;2023-02-19T07:54:05;100975.16;;;7.51;67.05
59272;BME280;45043;51.068;7.026;2023-02-19T07:57:07;100982.25;;;7.59;67.11
59272;BME280;45043;51.068;7.026;2023-02-19T08:00:08;100989.22;;;7.68;66.60
59272;BME280;45043;51.068;7.026;2023-02-19T08:03:12;100989.53;;;7.65;66.55
59272;BME280;45043;51.068;7.026;2023-02-19T08:06:13;101003.75;;;7.72;66.08
59272;BME280;45043;51.068;7.026;2023-02-19T08:09:13;101011.53;;;7.66;66.17
59272;BME280;45043;51.068;7.026;2023-02-19T08:12:14;101003.03;;;7.46;66.56
59272;BME280;45043;51.068;7.026;2023-02-19T08:19:02;101024.88;;;7.48;65.93
59272;BME280;45043;51.068;7.026;2023-02-19T08:22:03;101014.63;;;7.45;66.43
59272;BME280;45043;51.068;7.026;2023-02-19T08:25:03;101021.22;;;7.49;66.40
59272;BME280;45043;51.068;7.026;2023-02-19T08:28:04;101019.59;;;7.56;66.42
59272;BME280;45043;51.068;7.026;2023-02-19T08:31:06;101029.66;;;7.52;66.35
59272;BME280;45043;51.068;7.026;2023-02-19T08:34:07;101031.66;;;7.42;66.45
59272;BME280;45043;51.068;7.026;2023-02-19T08:37:08;101028.50;;;7.39;66.63
59272;BME280;45043;51.068;7.026;2023-02-19T08:40:08;101056.72;;;7.38;66.66
59272;BME280;45043;51.068;7.026;2023-02-19T08:43:11;101052.25;;;7.30;66.59
59272;BME280;45043;51.068;7.026;2023-02-19T08:46:12;101058.34;;;7.23;66.85
59272;BME280;45043;51.068;7.026;2023-02-19T08:49:12;101068.56;;;7.18;66.94
59272;BME280;45043;51.068;7.026;2023-02-19T08:52:13;101045.59;;;7.10;66.77
59272;BME280;45043;51.068;7.026;2023-02-19T08:55:13;101040.94;;;7.12;66.68
59272;BME280;45043;51.068;7.026;2023-02-19T08:58:14;101042.16;;;7.18;66.89
59272;BME280;45043;51.068;7.026;2023-02-19T09:01:15;101059.53;;;7.28;66.62
59272;BME280;45043;51.068;7.026;2023-02-19T09:04:17;101065.50;;;7.39;66.46
59272;BME280;45043;51.068;7.026;2023-02-19T09:07:18;101064.69;;;7.46;66.13
59272;BME280;45043;51.068;7.026;2023-02-19T09:10:18;101069.81;;;7.48;65.93
59272;BME280;45043;51.068;7.026;2023-02-19T09:13:19;101063.03;;;7.45;65.78
59272;BME280;45043;51.068;7.026;2023-02-19T09:16:19;101049.81;;;7.45;65.65
59272;BME280;45043;51.068;7.026;2023-02-19T09:19:20;101072.78;;;7.53;65.24
59272;BME280;45043;51.068;7.026;2023-02-19T09:22:20;101075.59;;;7.51;65.38
59272;BME280;45043;51.068;7.026;2023-02-19T09:25:21;101070.81;;;7.55;64.92
59272;BME280;45043;51.068;7.026;2023-02-19T09:28:21;101083.03;;;7.40;65.14
59272;BME280;45043;51.068;7.026;2023-02-19T09:31:22;101082.94;;;7.23;65.32
59272;BME280;45043;51.068;7.026;2023-02-19T09:34:23;101092.16;;;7.11;64.96
59272;BME280;45043;51.068;7.026;2023-02-19T09:37:27;101099.53;;;6.99;64.92
59272;BME280;45043;51.068;7.026;2023-02-19T09:40:29;101110.13;;;6.81;65.90
59272;BME280;45043;51.068;7.026;2023-02-19T09:43:29;101107.75;;;6.70;66.40
59272;BME280;45043;51.068;7.026;2023-02-19T09:46:51;101107.75;;;6.70;66.38
59272;BME280;45043;51.068;7.026;2023-02-19T09:49:55;101109.56;;;6.70;67.13
59272;BME280;45043;51.068;7.026;2023-02-19T09:53:02;101130.84;;;6.68;67.56
59272;BME280;45043;51.068;7.026;2023-02-19T09:56:04;101117.28;;;6.63;67.17
59272;BME280;45043;51.068;7.026;2023-02-19T09:59:05;101105.19;;;6.60;67.40
59272;BME280;45043;51.068;7.026;2023-02-19T10:02:35;101113.88;;;6.53;67.36
59272;BME280;45043;51.068;7.026;2023-02-19T10:05:37;101109.47;;;6.53;67.49
59272;BME280;45043;51.068;7.026;2023-02-19T10:08:39;101131.03;;;6.49;67.78
59272;BME280;45043;51.068;7.026;2023-02-19T10:11:41;101125.75;;;6.49;67.65
59272;BME280;45043;51.068;7.026;2023-02-19T10:14:46;101136.31;;;6.49;67.25
59272;BME280;45043;51.068;7.026;2023-02-19T10:17:47;101173.72;;;6.44;67.96
59272;BME280;45043;51.068;7.026;2023-02-19T10:20:49;101147.78;;;6.39;68.02
59272;BME280;45043;51.068;7.026;2023-02-19T10:23:53;101170.56;;;6.41;68.26
59272;BME280;45043;51.068;7.026;2023-02-19T10:26:55;101173.78;;;6.34;68.45
59272;BME280;45043;51.068;7.026;2023-02-19T10:29:56;101201.78;;;6.27;68.99
59272;BME280;45043;51.068;7.026;2023-02-19T10:33:11;101162.63;;;6.23;69.60
59272;BME280;45043;51.068;7.026;2023-02-19T10:39:41;101177.66;;;6.22;69.82
59272;BME280;45043;51.068;7.026;2023-02-19T10:42:45;101186.53;;;6.21;69.96
59272;BME280;45043;51.068;7.026;2023-02-19T10:45:47;101216.31;;;6.13;70.61
59272;BME280;45043;51.068;7.026;2023-02-19T10:49:01;101214.13;;;6.09;70.52
59272;BME280;45043;51.068;7.026;2023-02-19T10:52:15;101217.16;;;6.14;70.69
59272;BME280;45043;51.068;7.026;2023-02-19T10:58:23;101221.66;;;6.22;70.44
59272;BME280;45043;51.068;7.026;2023-02-19T11:01:26;101212.19;;;6.29;70.11
59272;BME280;45043;51.068;7.026;2023-02-19T11:04:32;101229.16;;;6.44;69.65
59272;BME280;45043;51.068;7.026;2023-02-19T11:07:43;101207.66;;;6.57;69.61
59272;BME280;45043;51.068;7.026;2023-02-19T11:10:47;101204.44;;;6.71;69.16
59272;BME280;45043;51.068;7.026;2023-02-19T11:13:48;101213.66;;;6.67;68.62
59272;BME280;45043;51.068;7.026;2023-02-19T11:16:51;101227.25;;;6.72;68.55
59272;BME280;45043;51.068;7.026;2023-02-19T11:19:57;101212.75;;;6.76;67.91
59272;BME280;45043;51.068;7.026;2023-02-19T11:23:13;101225.97;;;6.76;67.80
59272;BME280;45043;51.068;7.026;2023-02-19T11:26:18;101225.50;;;6.81;67.92
59272;BME280;45043;51.068;7.026;2023-02-19T11:29:21;101213.84;;;6.83;67.69
59272;BME280;45043;51.068;7.026;2023-02-19T11:32:27;101220.47;;;6.88;66.81
59272;BME280;45043;51.068;7.026;2023-02-19T11:35:29;101253.41;;;7.01;66.99
59272;BME280;45043;51.068;7.026;2023-02-19T11:38:29;101212.59;;;6.96;66.74
59272;BME280;45043;51.068;7.026;2023-02-19T11:44:51;101213.59;;;6.77;67.05
59272;BME280;45043;51.068;7.026;2023-02-19T11:48:34;101199.81;;;6.65;67.50
59272;BME280;45043;51.068;7.026;2023-02-19T11:58:45;101221.88;;;6.64;67.93
59272;BME280;45043;51.068;7.026;2023-02-19T12:02:03;101205.69;;;6.59;68.01
59272;BME280;45043;51.068;7.026;2023-02-19T12:05:17;101202.97;;;6.51;68.77
59272;BME280;45043;51.068;7.026;2023-02-19T12:18:52;101187.63;;;6.90;67.27
59272;BME280;45043;51.068;7.026;2023-02-19T12:28:38;101208.44;;;6.93;65.97
59272;BME280;45043;51.068;7.026;2023-02-19T12:38:25;101216.50;;;6.83;65.17
59272;BME280;45043;51.068;7.026;2023-02-19T12:44:47;101242.94;;;6.74;64.14
59272;BME280;45043;51.068;7.026;2023-02-19T12:51:11;101204.09;;;6.66;64.26
59272;BME280;45043;51.068;7.026;2023-02-19T12:54:29;101218.81;;;6.51;65.86
59272;BME280;45043;51.068;7.026;2023-02-19T12:57:35;101215.59;;;6.39;67.21
59272;BME280;45043;51.068;7.026;2023-02-19T13:00:43;101218.97;;;6.31;67.62
59272;BME280;45043;51.068;7.026;2023-02-19T13:04:17;101227.63;;;6.24;68.15
59272;BME280;45043;51.068;7.026;2023-02-19T13:07:35;101234.47;;;6.34;68.12
59272;BME280;45043;51.068;7.026;2023-02-19T13:10:43;101238.19;;;6.42;68.33
59272;BME280;45043;51.068;7.026;2023-02-19T13:13:49;101231.94;;;6.43;68.69
59272;BME280;45043;51.068;7.026;2023-02-19T13:17:18;101233.31;;;6.47;68.74
59272;BME280;45043;51.068;7.026;2023-02-19T13:23:24;101222.88;;;6.63;67.96
59272;BME280;45043;51.068;7.026;2023-02-19T13:26:50;101215.19;;;6.88;67.98
59272;BME280;45043;51.068;7.026;2023-02-19T13:36:04;101220.06;;;7.26;65.67
59272;BME280;45043;51.068;7.026;2023-02-19T13:39:12;101217.28;;;7.28;65.09
59272;BME280;45043;51.068;7.026;2023-02-19T13:42:30;101239.84;;;7.22;64.10
59272;BME280;45043;51.068;7.026;2023-02-19T13:45:42;101225.34;;;7.26;64.25
59272;BME280;45043;51.068;7.026;2023-02-19T13:48:44;101242.88;;;7.27;64.10
59272;BME280;45043;51.068;7.026;2023-02-19T13:52:38;101244.47;;;7.20;63.69
59272;BME280;45043;51.068;7.026;2023-02-19T13:55:42;101268.34;;;7.10;64.19
59272;BME280;45043;51.068;7.026;2023-02-19T13:58:52;101268.75;;;6.98;64.62
59272;BME280;45043;51.068;7.026;2023-02-19T14:07:59;101268.75;;;6.62;66.38
59272;BME280;45043;51.068;7.026;2023-02-19T14:10:59;101271.63;;;6.51;66.78
59272;BME280;45043;51.068;7.026;2023-02-19T14:14:24;101278.53;;;6.52;66.62
59272;BME280;45043;51.068;7.026;2023-02-19T14:20:43;101297.81;;;6.34;67.45
59272;BME280;45043;51.068;7.026;2023-02-19T14:23:51;101305.34;;;6.29;67.73
59272;BME280;45043;51.068;7.026;2023-02-19T14:26:55;101320.00;;;6.24;68.04
59272;BME280;45043;51.068;7.026;2023-02-19T14:29:56;101307.22;;;6.19;68.52
59272;BME280;45043;51.068;7.026;2023-02-19T14:32:59;101315.97;;;6.20;68.63
59272;BME280;45043;51.068;7.026;2023-02-19T14:36:12;101313.75;;;6.15;68.87
59272;BME280;45043;51.068;7.026;2023-02-19T14:39:23;101323.66;;;6.13;69.14
59272;BME280;45043;51.068;7.026;2023-02-19T14:42:26;101328.66;;;6.16;68.81
59272;BME280;45043;51.068;7.026;2023-02-19T14:45:43;101328.19;;;6.21;68.83
59272;BME280;45043;51.068;7.026;2023-02-19T14:48:48;101344.84;;;6.21;68.75
59272;BME280;45043;51.068;7.026;2023-02-19T14:51:56;101336.25;;;6.19;68.81
59272;BME280;45043;51.068;7.026;2023-02-19T14:55:07;101346.25;;;6.15;68.84
59272;BME280;45043;51.068;7.026;2023-02-19T14:58:20;101338.50;;;6.14;68.65
59272;BME280;45043;51.068;7.026;2023-02-19T15:01:26;101336.56;;;6.16;68.81
59272;BME280;45043;51.068;7.026;2023-02-19T15:04:29;101331.78;;;6.20;68.84
59272;BME280;45043;51.068;7.026;2023-02-19T15:07:33;101325.28;;;6.24;69.14
59272;BME280;45043;51.068;7.026;2023-02-19T15:10:34;101329.41;;;6.26;69.10
59272;BME280;45043;51.068;7.026;2023-02-19T15:13:36;101322.09;;;6.20;69.16
59272;BME280;45043;51.068;7.026;2023-02-19T15:16:36;101316.28;;;6.17;69.38
59272;BME280;45043;51.068;7.026;2023-02-19T15:19:37;101309.09;;;6.09;69.35
59272;BME280;45043;51.068;7.026;2023-02-19T15:22:39;101306.22;;;6.02;69.75
59272;BME280;45043;51.068;7.026;2023-02-19T15:25:41;101299.41;;;6.00;69.99
59272;BME280;45043;51.068;7.026;2023-02-19T15:28:42;101290.81;;;5.98;70.09
59272;BME280;45043;51.068;7.026;2023-02-19T15:31:47;101287.59;;;6.04;70.24
59272;BME280;45043;51.068;7.026;2023-02-19T15:34:54;101285.66;;;6.06;70.20
59272;BME280;45043;51.068;7.026;2023-02-19T15:37:55;101283.13;;;6.04;70.27
59272;BME280;45043;51.068;7.026;2023-02-19T15:40:56;101275.38;;;6.03;70.39
59272;BME280;45043;51.068;7.026;2023-02-19T15:47:03;101283.50;;;5.92;70.02
59272;BME280;45043;51.068;7.026;2023-02-19T15:50:26;101266.75;;;5.83;70.14
59272;BME280;45043;51.068;7.026;2023-02-19T15:53:29;101264.81;;;5.75;70.67
59272;BME280;45043;51.068;7.026;2023-02-19T15:56:35;101262.63;;;5.71;70.62
59272;BME280;45043;51.068;7.026;2023-02-19T15:59:43;101276.41;;;5.64;70.84
59272;BME280;45043;51.068;7.026;2023-02-19T16:02:46;101280.81;;;5.64;70.98
59272;BME280;45043;51.068;7.026;2023-02-19T16:09:05;101282.75;;;5.72;70.92
59272;BME280;45043;51.068;7.026;2023-02-19T16:12:21;101273.56;;;5.76;70.68
59272;BME280;45043;51.068;7.026;2023-02-19T16:15:22;101289.22;;;5.77;70.93
59272;BME280;45043;51.068;7.026;2023-02-19T16:18:23;101291.44;;;5.82;70.57
59272;BME280;45043;51.068;7.026;2023-02-19T16:21:25;101304.03;;;5.88;70.60
59272;BME280;45043;51.068;7.026;2023-02-19T16:24:33;101293.34;;;5.89;70.07
59272;BME280;45043;51.068;7.026;2023-02-19T16:27:37;101299.59;;;5.88;69.90
59272;BME280;45043;51.068;7.026;2023-02-19T16:30:40;101318.88;;;5.89;69.80
59272;BME280;45043;51.068;7.026;2023-02-19T16:33:45;101311.13;;;5.87;69.64
59272;BME280;45043;51.068;7.026;2023-02-19T16:36:47;101314.75;;;5.86;69.53
59272;BME280;45043;51.068;7.026;2023-02-19T16:43:38;101305.44;;;5.82;69.22
59272;BME280;45043;51.068;7.026;2023-02-19T16:46:38;101318.34;;;5.85;69.02
59272;BME280;45043;51.068;7.026;2023-02-19T16:49:40;101317.22;;;5.88;69.26
59272;BME280;45043;51.068;7.026;2023-02-19T16:52:56;101337.50;;;5.87;68.83
59272;BME280;45043;51.068;7.026;2023-02-19T16:55:57;101343.59;;;5.88;68.30
59272;BME280;45043;51.068;7.026;2023-02-19T16:58:58;101334.16;;;5.85;68.50
59272;BME280;45043;51.068;7.026;2023-02-19T17:01:59;101344.72;;;5.85;68.47
59272;BME280;45043;51.068;7.026;2023-02-19T17:05:02;101367.78;;;5.83;68.28
59272;BME280;45043;51.068;7.026;2023-02-19T17:08:24;101383.44;;;5.75;68.22
59272;BME280;45043;51.068;7.026;2023-02-19T17:11:25;101379.31;;;5.63;68.46
59272;BME280;45043;51.068;7.026;2023-02-19T17:14:26;101394.03;;;5.56;68.42
59272;BME280;45043;51.068;7.026;2023-02-19T17:17:27;101413.06;;;5.50;68.41
59272;BME280;45043;51.068;7.026;2023-02-19T17:20:29;101396.16;;;5.43;68.72
59272;BME280;45043;51.068;7.026;2023-02-19T17:23:30;101426.41;;;5.38;68.61
59272;BME280;45043;51.068;7.026;2023-02-19T17:26:31;101415.84;;;5.38;68.35
59272;BME280;45043;51.068;7.026;2023-02-19T17:29:32;101449.25;;;5.38;68.40
59272;BME280;45043;51.068;7.026;2023-02-19T17:32:33;101438.31;;;5.33;67.69
59272;BME280;45043;51.068;7.026;2023-02-19T17:35:33;101436.75;;;5.21;67.21
59272;BME280;45043;51.068;7.026;2023-02-19T17:38:33;101428.03;;;5.20;66.45
59272;BME280;45043;51.068;7.026;2023-02-19T17:41:34;101427.31;;;5.18;66.09
59272;BME280;45043;51.068;7.026;2023-02-19T17:44:35;101433.69;;;5.15;65.30
59272;BME280;45043;51.068;7.026;2023-02-19T17:47:35;101424.38;;;5.11;65.45
59272;BME280;45043;51.068;7.026;2023-02-19T17:50:36;101433.56;;;5.17;65.03
59272;BME280;45043;51.068;7.026;2023-02-19T17:53:36;101448.66;;;5.15;65.01
59272;BME280;45043;51.068;7.026;2023-02-19T17:56:37;101443.81;;;5.10;64.66